Lower Salem, Ohio
Current Conditions -  °F | °C
As of 6:46 AM on Tuesday 21 Oct 2014 (Local Time) from KPKB Reporting Station
Overcast Overcast  
Wind Chill: 49°   Ceiling: 2700
Heat Index: 49°   Visibility: 9mi
Dew Point: 47°   Wind: 0mph
Humidity: 93%   Direction: NA
Pressure: 29.91"   Gusts: NA
Location:  39.56°N, 81.4°W
Report Text: KPKB 211046Z 00000KT 9SM BKN027 OVC034 09/08 A2991 RMK AO2 T00940083
Loading
Personal Weather Stations






























Interactive Weather Map
Tropical Storm Tracking
New forecast layout! Learn more

10-Day Weather Forecast

Advertisements
Track Severe Weather on mobile